sensor_id;sensor_type;location;lat;lon;timestamp;P1;durP1;ratioP1;P2;durP2;ratioP2
15553;SDS011;7878;44.632;10.942;2023-04-01T00:02:07;23.87;;;13.53;;
15553;SDS011;7878;44.632;10.942;2023-04-01T00:04:33;19.10;;;14.00;;
15553;SDS011;7878;44.632;10.942;2023-04-01T00:06:59;21.17;;;15.17;;
15553;SDS011;7878;44.632;10.942;2023-04-01T00:09:25;24.33;;;15.60;;
15553;SDS011;7878;44.632;10.942;2023-04-01T00:11:51;26.30;;;15.40;;
15553;SDS011;7878;44.632;10.942;2023-04-01T00:14:16;24.37;;;14.47;;
15553;SDS011;7878;44.632;10.942;2023-04-01T00:16:42;22.57;;;14.37;;
15553;SDS011;7878;44.632;10.942;2023-04-01T00:19:08;21.17;;;14.43;;
15553;SDS011;7878;44.632;10.942;2023-04-01T00:21:34;21.47;;;14.77;;
15553;SDS011;7878;44.632;10.942;2023-04-01T00:24:01;25.70;;;13.63;;
15553;SDS011;7878;44.632;10.942;2023-04-01T00:26:27;25.77;;;15.90;;
15553;SDS011;7878;44.632;10.942;2023-04-01T00:28:53;23.77;;;15.83;;
15553;SDS011;7878;44.632;10.942;2023-04-01T00:31:18;21.03;;;15.00;;
15553;SDS011;7878;44.632;10.942;2023-04-01T00:33:44;30.70;;;15.80;;
15553;SDS011;7878;44.632;10.942;2023-04-01T00:36:11;28.90;;;16.63;;
15553;SDS011;7878;44.632;10.942;2023-04-01T00:38:40;29.30;;;16.93;;
15553;SDS011;7878;44.632;10.942;2023-04-01T00:41:08;22.37;;;15.43;;
15553;SDS011;7878;44.632;10.942;2023-04-01T00:43:39;23.33;;;16.30;;
15553;SDS011;7878;44.632;10.942;2023-04-01T00:46:05;24.93;;;16.63;;
15553;SDS011;7878;44.632;10.942;2023-04-01T00:48:33;26.17;;;16.90;;
15553;SDS011;7878;44.632;10.942;2023-04-01T00:51:04;28.30;;;16.57;;
15553;SDS011;7878;44.632;10.942;2023-04-01T00:53:32;24.20;;;16.27;;
15553;SDS011;7878;44.632;10.942;2023-04-01T00:56:05;23.00;;;15.93;;
15553;SDS011;7878;44.632;10.942;2023-04-01T00:58:36;24.33;;;16.73;;
15553;SDS011;7878;44.632;10.942;2023-04-01T01:01:06;27.43;;;17.87;;
15553;SDS011;7878;44.632;10.942;2023-04-01T01:03:34;25.47;;;16.30;;
15553;SDS011;7878;44.632;10.942;2023-04-01T01:06:05;27.67;;;16.53;;
15553;SDS011;7878;44.632;10.942;2023-04-01T01:11:18;29.17;;;17.27;;
15553;SDS011;7878;44.632;10.942;2023-04-01T01:16:21;28.77;;;18.77;;
15553;SDS011;7878;44.632;10.942;2023-04-01T01:18:56;30.27;;;19.77;;
15553;SDS011;7878;44.632;10.942;2023-04-01T01:27:17;30.83;;;20.37;;
15553;SDS011;7878;44.632;10.942;2023-04-01T01:29:57;24.73;;;18.93;;
15553;SDS011;7878;44.632;10.942;2023-04-01T01:38:13;30.40;;;19.57;;
15553;SDS011;7878;44.632;10.942;2023-04-01T01:40:59;26.70;;;19.47;;
15553;SDS011;7878;44.632;10.942;2023-04-01T01:43:30;29.03;;;19.80;;
15553;SDS011;7878;44.632;10.942;2023-04-01T01:46:08;28.20;;;19.93;;
15553;SDS011;7878;44.632;10.942;2023-04-01T01:48:41;30.23;;;20.27;;
15553;SDS011;7878;44.632;10.942;2023-04-01T01:51:08;28.50;;;21.20;;
15553;SDS011;7878;44.632;10.942;2023-04-01T01:53:34;28.33;;;19.37;;
15553;SDS011;7878;44.632;10.942;2023-04-01T01:56:00;28.20;;;20.70;;
15553;SDS011;7878;44.632;10.942;2023-04-01T02:01:01;27.03;;;20.13;;
15553;SDS011;7878;44.632;10.942;2023-04-01T02:03:31;28.20;;;19.60;;
15553;SDS011;7878;44.632;10.942;2023-04-01T02:06:01;26.10;;;19.60;;
15553;SDS011;7878;44.632;10.942;2023-04-01T02:08:34;31.67;;;20.93;;
15553;SDS011;7878;44.632;10.942;2023-04-01T02:11:08;27.80;;;19.43;;
15553;SDS011;7878;44.632;10.942;2023-04-01T02:13:58;35.53;;;19.17;;
15553;SDS011;7878;44.632;10.942;2023-04-01T02:17:04;36.00;;;21.03;;
15553;SDS011;7878;44.632;10.942;2023-04-01T02:19:36;31.03;;;19.23;;
15553;SDS011;7878;44.632;10.942;2023-04-01T02:22:11;26.80;;;19.40;;
15553;SDS011;7878;44.632;10.942;2023-04-01T02:24:41;24.93;;;19.00;;
15553;SDS011;7878;44.632;10.942;2023-04-01T02:27:09;27.87;;;19.50;;
15553;SDS011;7878;44.632;10.942;2023-04-01T02:29:35;32.13;;;19.60;;
15553;SDS011;7878;44.632;10.942;2023-04-01T02:32:01;29.63;;;18.03;;
15553;SDS011;7878;44.632;10.942;2023-04-01T02:34:28;23.20;;;18.43;;
15553;SDS011;7878;44.632;10.942;2023-04-01T02:36:54;27.77;;;18.57;;
15553;SDS011;7878;44.632;10.942;2023-04-01T02:39:21;29.27;;;18.73;;
15553;SDS011;7878;44.632;10.942;2023-04-01T02:41:47;26.73;;;18.30;;
15553;SDS011;7878;44.632;10.942;2023-04-01T02:44:14;25.33;;;17.90;;
15553;SDS011;7878;44.632;10.942;2023-04-01T02:46:40;30.57;;;19.43;;
15553;SDS011;7878;44.632;10.942;2023-04-01T02:49:06;25.90;;;18.53;;
15553;SDS011;7878;44.632;10.942;2023-04-01T02:51:32;22.77;;;17.50;;
15553;SDS011;7878;44.632;10.942;2023-04-01T02:53:58;21.80;;;17.60;;
15553;SDS011;7878;44.632;10.942;2023-04-01T02:56:24;25.10;;;17.83;;
15553;SDS011;7878;44.632;10.942;2023-04-01T02:58:51;24.97;;;18.10;;
15553;SDS011;7878;44.632;10.942;2023-04-01T03:01:17;24.33;;;18.00;;
15553;SDS011;7878;44.632;10.942;2023-04-01T03:03:42;21.03;;;17.83;;
15553;SDS011;7878;44.632;10.942;2023-04-01T03:06:09;26.90;;;16.97;;
15553;SDS011;7878;44.632;10.942;2023-04-01T03:08:37;25.53;;;17.60;;
15553;SDS011;7878;44.632;10.942;2023-04-01T03:11:03;21.30;;;16.43;;
15553;SDS011;7878;44.632;10.942;2023-04-01T03:13:29;23.87;;;17.40;;
15553;SDS011;7878;44.632;10.942;2023-04-01T03:15:54;25.57;;;18.07;;
15553;SDS011;7878;44.632;10.942;2023-04-01T03:18:20;26.30;;;16.90;;
15553;SDS011;7878;44.632;10.942;2023-04-01T03:20:46;23.17;;;17.57;;
15553;SDS011;7878;44.632;10.942;2023-04-01T03:23:12;26.10;;;17.73;;
15553;SDS011;7878;44.632;10.942;2023-04-01T03:25:38;27.90;;;18.37;;
15553;SDS011;7878;44.632;10.942;2023-04-01T03:28:03;24.03;;;18.50;;
15553;SDS011;7878;44.632;10.942;2023-04-01T03:30:29;23.10;;;17.60;;
15553;SDS011;7878;44.632;10.942;2023-04-01T03:32:56;28.30;;;17.63;;
15553;SDS011;7878;44.632;10.942;2023-04-01T03:35:23;21.30;;;16.87;;
15553;SDS011;7878;44.632;10.942;2023-04-01T03:37:50;25.07;;;17.37;;
15553;SDS011;7878;44.632;10.942;2023-04-01T03:40:17;24.60;;;17.23;;
15553;SDS011;7878;44.632;10.942;2023-04-01T03:42:43;22.80;;;16.37;;
15553;SDS011;7878;44.632;10.942;2023-04-01T03:45:08;21.27;;;16.80;;
15553;SDS011;7878;44.632;10.942;2023-04-01T03:47:35;23.73;;;17.27;;
15553;SDS011;7878;44.632;10.942;2023-04-01T03:50:01;23.13;;;16.90;;
15553;SDS011;7878;44.632;10.942;2023-04-01T03:52:27;23.47;;;16.37;;
15553;SDS011;7878;44.632;10.942;2023-04-01T03:54:52;21.80;;;15.70;;
15553;SDS011;7878;44.632;10.942;2023-04-01T03:57:18;23.80;;;16.47;;
15553;SDS011;7878;44.632;10.942;2023-04-01T03:59:44;24.70;;;16.60;;
15553;SDS011;7878;44.632;10.942;2023-04-01T04:02:09;23.03;;;16.73;;
15553;SDS011;7878;44.632;10.942;2023-04-01T04:04:35;25.90;;;17.20;;
15553;SDS011;7878;44.632;10.942;2023-04-01T04:07:01;30.10;;;16.57;;
15553;SDS011;7878;44.632;10.942;2023-04-01T04:09:27;25.13;;;16.07;;
15553;SDS011;7878;44.632;10.942;2023-04-01T04:11:52;19.80;;;15.80;;
15553;SDS011;7878;44.632;10.942;2023-04-01T04:14:18;22.90;;;14.73;;
15553;SDS011;7878;44.632;10.942;2023-04-01T04:16:44;24.17;;;16.40;;
15553;SDS011;7878;44.632;10.942;2023-04-01T04:19:09;17.47;;;14.47;;
15553;SDS011;7878;44.632;10.942;2023-04-01T04:21:35;20.60;;;15.10;;
15553;SDS011;7878;44.632;10.942;2023-04-01T04:24:01;20.57;;;15.23;;
15553;SDS011;7878;44.632;10.942;2023-04-01T04:26:27;23.90;;;14.93;;
15553;SDS011;7878;44.632;10.942;2023-04-01T04:28:53;22.63;;;15.80;;
15553;SDS011;7878;44.632;10.942;2023-04-01T04:31:20;27.23;;;15.93;;
15553;SDS011;7878;44.632;10.942;2023-04-01T04:33:48;22.13;;;15.73;;
15553;SDS011;7878;44.632;10.942;2023-04-01T04:36:14;22.30;;;15.60;;
15553;SDS011;7878;44.632;10.942;2023-04-01T04:38:40;21.70;;;15.67;;
15553;SDS011;7878;44.632;10.942;2023-04-01T04:41:09;23.83;;;15.07;;
15553;SDS011;7878;44.632;10.942;2023-04-01T04:43:36;21.73;;;15.67;;
15553;SDS011;7878;44.632;10.942;2023-04-01T04:46:06;18.53;;;15.33;;
15553;SDS011;7878;44.632;10.942;2023-04-01T04:48:35;19.37;;;14.30;;
15553;SDS011;7878;44.632;10.942;2023-04-01T04:51:02;25.00;;;14.63;;
15553;SDS011;7878;44.632;10.942;2023-04-01T04:53:28;32.43;;;15.50;;
15553;SDS011;7878;44.632;10.942;2023-04-01T04:55:54;23.80;;;15.13;;
15553;SDS011;7878;44.632;10.942;2023-04-01T04:58:20;23.07;;;14.43;;
15553;SDS011;7878;44.632;10.942;2023-04-01T05:00:46;20.37;;;13.93;;
15553;SDS011;7878;44.632;10.942;2023-04-01T05:03:12;17.93;;;14.33;;
15553;SDS011;7878;44.632;10.942;2023-04-01T05:05:38;17.33;;;13.00;;
15553;SDS011;7878;44.632;10.942;2023-04-01T05:08:04;20.33;;;12.77;;
15553;SDS011;7878;44.632;10.942;2023-04-01T05:10:30;19.07;;;13.33;;
15553;SDS011;7878;44.632;10.942;2023-04-01T05:12:56;16.50;;;13.77;;
15553;SDS011;7878;44.632;10.942;2023-04-01T05:15:22;19.93;;;13.83;;
15553;SDS011;7878;44.632;10.942;2023-04-01T05:17:48;17.37;;;13.17;;
15553;SDS011;7878;44.632;10.942;2023-04-01T05:20:14;19.73;;;13.10;;
15553;SDS011;7878;44.632;10.942;2023-04-01T05:22:40;25.40;;;14.10;;
15553;SDS011;7878;44.632;10.942;2023-04-01T05:25:06;18.60;;;13.87;;
15553;SDS011;7878;44.632;10.942;2023-04-01T05:27:32;26.37;;;13.67;;
15553;SDS011;7878;44.632;10.942;2023-04-01T05:29:58;20.40;;;14.40;;
15553;SDS011;7878;44.632;10.942;2023-04-01T05:32:24;24.60;;;14.50;;
15553;SDS011;7878;44.632;10.942;2023-04-01T05:34:50;25.23;;;14.63;;
15553;SDS011;7878;44.632;10.942;2023-04-01T05:37:16;26.27;;;14.03;;
15553;SDS011;7878;44.632;10.942;2023-04-01T05:39:42;23.17;;;15.67;;
15553;SDS011;7878;44.632;10.942;2023-04-01T05:42:08;27.07;;;15.03;;
15553;SDS011;7878;44.632;10.942;2023-04-01T05:44:34;19.60;;;14.03;;
15553;SDS011;7878;44.632;10.942;2023-04-01T05:47:00;25.97;;;14.23;;
15553;SDS011;7878;44.632;10.942;2023-04-01T05:49:27;21.50;;;13.33;;
15553;SDS011;7878;44.632;10.942;2023-04-01T05:51:53;19.33;;;12.63;;
15553;SDS011;7878;44.632;10.942;2023-04-01T05:54:19;18.60;;;11.83;;
15553;SDS011;7878;44.632;10.942;2023-04-01T05:56:45;17.20;;;12.03;;
15553;SDS011;7878;44.632;10.942;2023-04-01T05:59:11;20.23;;;13.00;;
15553;SDS011;7878;44.632;10.942;2023-04-01T06:01:38;22.67;;;12.63;;
15553;SDS011;7878;44.632;10.942;2023-04-01T06:04:04;18.17;;;11.93;;
15553;SDS011;7878;44.632;10.942;2023-04-01T06:06:30;18.40;;;11.13;;
15553;SDS011;7878;44.632;10.942;2023-04-01T06:08:58;16.60;;;12.70;;
15553;SDS011;7878;44.632;10.942;2023-04-01T06:19:54;14.57;;;12.27;;
15553;SDS011;7878;44.632;10.942;2023-04-01T06:30:38;20.47;;;13.87;;
15553;SDS011;7878;44.632;10.942;2023-04-01T06:33:24;17.53;;;13.03;;
15553;SDS011;7878;44.632;10.942;2023-04-01T06:36:07;15.67;;;13.07;;
15553;SDS011;7878;44.632;10.942;2023-04-01T06:39:03;20.50;;;12.40;;
15553;SDS011;7878;44.632;10.942;2023-04-01T06:44:23;26.27;;;14.97;;
15553;SDS011;7878;44.632;10.942;2023-04-01T06:47:05;23.67;;;15.43;;
15553;SDS011;7878;44.632;10.942;2023-04-01T06:55:00;21.10;;;17.03;;
15553;SDS011;7878;44.632;10.942;2023-04-01T06:57:35;29.30;;;16.70;;
15553;SDS011;7878;44.632;10.942;2023-04-01T07:00:13;22.03;;;16.67;;
15553;SDS011;7878;44.632;10.942;2023-04-01T07:02:54;24.27;;;16.63;;
15553;SDS011;7878;44.632;10.942;2023-04-01T07:05:32;25.77;;;16.13;;
15553;SDS011;7878;44.632;10.942;2023-04-01T07:08:01;20.83;;;15.67;;
15553;SDS011;7878;44.632;10.942;2023-04-01T07:13:19;27.23;;;14.10;;
15553;SDS011;7878;44.632;10.942;2023-04-01T07:15:59;15.45;;;13.40;;
15553;SDS011;7878;44.632;10.942;2023-04-01T07:18:34;21.67;;;13.30;;
15553;SDS011;7878;44.632;10.942;2023-04-01T07:21:09;26.85;;;14.50;;
15553;SDS011;7878;44.632;10.942;2023-04-01T07:23:42;26.55;;;14.98;;
15553;SDS011;7878;44.632;10.942;2023-04-01T07:26:21;19.23;;;14.60;;
15553;SDS011;7878;44.632;10.942;2023-04-01T07:28:48;20.88;;;15.48;;
15553;SDS011;7878;44.632;10.942;2023-04-01T07:31:22;20.98;;;13.43;;
15553;SDS011;7878;44.632;10.942;2023-04-01T07:37:06;14.60;;;12.60;;
15553;SDS011;7878;44.632;10.942;2023-04-01T07:42:51;14.52;;;12.52;;
15553;SDS011;7878;44.632;10.942;2023-04-01T07:45:37;25.88;;;13.10;;
15553;SDS011;7878;44.632;10.942;2023-04-01T07:48:28;17.75;;;12.65;;
15553;SDS011;7878;44.632;10.942;2023-04-01T07:54:17;15.20;;;12.20;;
15553;SDS011;7878;44.632;10.942;2023-04-01T07:59:18;19.85;;;11.57;;
15553;SDS011;7878;44.632;10.942;2023-04-01T08:04:45;20.80;;;12.00;;
15553;SDS011;7878;44.632;10.942;2023-04-01T08:07:15;18.92;;;12.35;;
15553;SDS011;7878;44.632;10.942;2023-04-01T08:09:50;15.85;;;12.30;;
15553;SDS011;7878;44.632;10.942;2023-04-01T08:13:11;16.23;;;11.77;;
15553;SDS011;7878;44.632;10.942;2023-04-01T08:15:39;16.77;;;12.10;;
15553;SDS011;7878;44.632;10.942;2023-04-01T08:20:59;19.65;;;11.00;;
15553;SDS011;7878;44.632;10.942;2023-04-01T08:23:31;16.35;;;11.02;;
15553;SDS011;7878;44.632;10.942;2023-04-01T08:29:05;14.40;;;10.63;;
15553;SDS011;7878;44.632;10.942;2023-04-01T08:31:58;12.63;;;10.02;;
15553;SDS011;7878;44.632;10.942;2023-04-01T08:34:32;26.33;;;11.30;;
15553;SDS011;7878;44.632;10.942;2023-04-01T08:37:10;11.07;;;9.93;;
15553;SDS011;7878;44.632;10.942;2023-04-01T08:39:46;10.93;;;9.55;;
15553;SDS011;7878;44.632;10.942;2023-04-01T08:56:13;12.63;;;10.73;;
15553;SDS011;7878;44.632;10.942;2023-04-01T09:09:56;12.18;;;9.05;;
15553;SDS011;7878;44.632;10.942;2023-04-01T09:12:49;13.05;;;10.23;;
15553;SDS011;7878;44.632;10.942;2023-04-01T09:15:28;13.27;;;8.95;;
15553;SDS011;7878;44.632;10.942;2023-04-01T09:20:47;12.45;;;9.70;;
15553;SDS011;7878;44.632;10.942;2023-04-01T09:32:12;13.35;;;9.57;;
15553;SDS011;7878;44.632;10.942;2023-04-01T09:40:17;13.38;;;8.30;;
15553;SDS011;7878;44.632;10.942;2023-04-01T09:45:48;12.13;;;7.47;;
15553;SDS011;7878;44.632;10.942;2023-04-01T10:21:21;10.85;;;6.28;;
15553;SDS011;7878;44.632;10.942;2023-04-01T10:24:10;8.55;;;5.70;;
15553;SDS011;7878;44.632;10.942;2023-04-01T10:33:03;6.40;;;4.35;;
15553;SDS011;7878;44.632;10.942;2023-04-01T10:50:29;9.00;;;4.10;;
15553;SDS011;7878;44.632;10.942;2023-04-01T11:23:42;8.10;;;3.95;;
15553;SDS011;7878;44.632;10.942;2023-04-01T11:27:08;4.28;;;3.88;;
15553;SDS011;7878;44.632;10.942;2023-04-01T11:37:46;4.30;;;3.33;;
15553;SDS011;7878;44.632;10.942;2023-04-01T11:42:54;4.20;;;3.70;;
15553;SDS011;7878;44.632;10.942;2023-04-01T11:45:39;6.50;;;3.55;;
15553;SDS011;7878;44.632;10.942;2023-04-01T12:04:38;7.60;;;3.78;;
15553;SDS011;7878;44.632;10.942;2023-04-01T12:19:03;7.47;;;3.90;;
15553;SDS011;7878;44.632;10.942;2023-04-01T12:21:14;4.63;;;2.80;;
15553;SDS011;7878;44.632;10.942;2023-04-01T12:32:29;6.18;;;3.53;;
15553;SDS011;7878;44.632;10.942;2023-04-01T12:51:29;3.50;;;2.85;;
15553;SDS011;7878;44.632;10.942;2023-04-01T13:00:11;2.13;;;1.85;;
15553;SDS011;7878;44.632;10.942;2023-04-01T13:05:45;3.25;;;1.20;;
15553;SDS011;7878;44.632;10.942;2023-04-01T13:08:43;2.03;;;1.30;;
15553;SDS011;7878;44.632;10.942;2023-04-01T13:11:38;3.08;;;1.40;;
15553;SDS011;7878;44.632;10.942;2023-04-01T13:14:50;1.83;;;1.30;;
15553;SDS011;7878;44.632;10.942;2023-04-01T13:27:56;1.27;;;1.10;;
15553;SDS011;7878;44.632;10.942;2023-04-01T13:30:55;1.98;;;1.10;;
15553;SDS011;7878;44.632;10.942;2023-04-01T13:42:35;1.27;;;0.60;;
15553;SDS011;7878;44.632;10.942;2023-04-01T13:45:14;3.13;;;0.98;;
15553;SDS011;7878;44.632;10.942;2023-04-01T13:50:31;1.77;;;0.80;;
15553;SDS011;7878;44.632;10.942;2023-04-01T13:55:54;4.13;;;0.82;;
15553;SDS011;7878;44.632;10.942;2023-04-01T14:01:15;0.70;;;0.65;;
15553;SDS011;7878;44.632;10.942;2023-04-01T14:15:07;0.57;;;0.50;;
15553;SDS011;7878;44.632;10.942;2023-04-01T14:23:30;0.70;;;0.52;;
15553;SDS011;7878;44.632;10.942;2023-04-01T14:37:01;2.95;;;0.60;;
15553;SDS011;7878;44.632;10.942;2023-04-01T14:50:50;1.90;;;0.90;;
15553;SDS011;7878;44.632;10.942;2023-04-01T14:53:31;1.52;;;0.68;;
15553;SDS011;7878;44.632;10.942;2023-04-01T14:56:03;2.28;;;0.88;;
15553;SDS011;7878;44.632;10.942;2023-04-01T14:58:45;1.10;;;0.90;;
15553;SDS011;7878;44.632;10.942;2023-04-01T15:18:17;2.95;;;0.65;;
15553;SDS011;7878;44.632;10.942;2023-04-01T15:21:11;1.90;;;0.90;;
15553;SDS011;7878;44.632;10.942;2023-04-01T15:26:22;0.60;;;0.60;;
15553;SDS011;7878;44.632;10.942;2023-04-01T15:31:38;1.90;;;0.63;;
15553;SDS011;7878;44.632;10.942;2023-04-01T15:37:12;1.88;;;0.80;;
15553;SDS011;7878;44.632;10.942;2023-04-01T15:40:15;0.77;;;0.77;;
15553;SDS011;7878;44.632;10.942;2023-04-01T15:42:55;1.13;;;0.77;;
15553;SDS011;7878;44.632;10.942;2023-04-01T15:45:33;0.50;;;0.50;;
15553;SDS011;7878;44.632;10.942;2023-04-01T16:02:18;1.02;;;0.75;;
15553;SDS011;7878;44.632;10.942;2023-04-01T16:04:48;0.70;;;0.70;;
15553;SDS011;7878;44.632;10.942;2023-04-01T16:21:24;1.33;;;0.90;;
15553;SDS011;7878;44.632;10.942;2023-04-01T16:26:55;4.07;;;2.97;;
15553;SDS011;7878;44.632;10.942;2023-04-01T16:29:48;2.75;;;2.10;;
15553;SDS011;7878;44.632;10.942;2023-04-01T16:37:53;2.17;;;1.80;;
15553;SDS011;7878;44.632;10.942;2023-04-01T16:40:37;2.58;;;0.88;;
15553;SDS011;7878;44.632;10.942;2023-04-01T16:43:24;4.00;;;3.15;;
15553;SDS011;7878;44.632;10.942;2023-04-01T16:54:53;2.15;;;1.67;;
15553;SDS011;7878;44.632;10.942;2023-04-01T17:00:03;3.90;;;0.90;;
15553;SDS011;7878;44.632;10.942;2023-04-01T17:02:49;4.78;;;1.20;;
15553;SDS011;7878;44.632;10.942;2023-04-01T17:05:34;1.88;;;1.38;;
15553;SDS011;7878;44.632;10.942;2023-04-01T17:11:18;1.58;;;1.17;;
15553;SDS011;7878;44.632;10.942;2023-04-01T17:14:10;2.47;;;0.85;;
15553;SDS011;7878;44.632;10.942;2023-04-01T17:22:07;3.30;;;1.23;;
15553;SDS011;7878;44.632;10.942;2023-04-01T17:32:54;4.10;;;1.40;;
15553;SDS011;7878;44.632;10.942;2023-04-01T17:49:45;2.13;;;1.60;;
15553;SDS011;7878;44.632;10.942;2023-04-01T17:55:25;2.33;;;1.50;;
15553;SDS011;7878;44.632;10.942;2023-04-01T17:57:54;3.30;;;1.20;;
15553;SDS011;7878;44.632;10.942;2023-04-01T18:00:37;2.95;;;1.20;;
15553;SDS011;7878;44.632;10.942;2023-04-01T18:06:25;3.63;;;1.17;;
15553;SDS011;7878;44.632;10.942;2023-04-01T18:25:17;2.72;;;1.42;;
15553;SDS011;7878;44.632;10.942;2023-04-01T18:33:47;5.43;;;2.22;;
15553;SDS011;7878;44.632;10.942;2023-04-01T18:39:07;5.88;;;3.17;;
15553;SDS011;7878;44.632;10.942;2023-04-01T18:44:34;6.45;;;3.38;;
15553;SDS011;7878;44.632;10.942;2023-04-01T18:47:20;3.88;;;2.50;;
15553;SDS011;7878;44.632;10.942;2023-04-01T18:50:15;2.85;;;1.52;;
15553;SDS011;7878;44.632;10.942;2023-04-01T18:52:56;4.13;;;2.13;;
15553;SDS011;7878;44.632;10.942;2023-04-01T18:55:52;3.75;;;1.80;;
15553;SDS011;7878;44.632;10.942;2023-04-01T18:58:26;3.72;;;1.95;;
15553;SDS011;7878;44.632;10.942;2023-04-01T19:01:36;5.60;;;2.25;;
15553;SDS011;7878;44.632;10.942;2023-04-01T19:04:26;6.85;;;2.10;;
15553;SDS011;7878;44.632;10.942;2023-04-01T19:15:44;4.95;;;1.65;;
15553;SDS011;7878;44.632;10.942;2023-04-01T19:18:36;4.10;;;1.73;;
15553;SDS011;7878;44.632;10.942;2023-04-01T19:37:39;9.43;;;4.13;;
15553;SDS011;7878;44.632;10.942;2023-04-01T20:03:58;20.67;;;17.55;;
15553;SDS011;7878;44.632;10.942;2023-04-01T20:06:39;5.70;;;2.92;;
15553;SDS011;7878;44.632;10.942;2023-04-01T20:12:20;6.17;;;3.20;;
15553;SDS011;7878;44.632;10.942;2023-04-01T20:15:18;6.50;;;2.78;;
15553;SDS011;7878;44.632;10.942;2023-04-01T20:17:54;9.07;;;2.90;;
15553;SDS011;7878;44.632;10.942;2023-04-01T20:20:26;5.22;;;2.60;;
15553;SDS011;7878;44.632;10.942;2023-04-01T20:28:05;6.28;;;3.95;;
15553;SDS011;7878;44.632;10.942;2023-04-01T20:30:53;7.97;;;3.67;;
15553;SDS011;7878;44.632;10.942;2023-04-01T20:45:12;11.68;;;2.97;;
15553;SDS011;7878;44.632;10.942;2023-04-01T20:47:55;7.37;;;2.43;;
15553;SDS011;7878;44.632;10.942;2023-04-01T20:50:29;6.88;;;2.85;;
15553;SDS011;7878;44.632;10.942;2023-04-01T20:53:15;10.32;;;4.47;;
15553;SDS011;7878;44.632;10.942;2023-04-01T20:58:43;13.80;;;4.18;;
15553;SDS011;7878;44.632;10.942;2023-04-01T21:15:02;7.77;;;2.17;;
15553;SDS011;7878;44.632;10.942;2023-04-01T21:20:02;10.97;;;2.53;;
15553;SDS011;7878;44.632;10.942;2023-04-01T21:22:41;7.43;;;2.60;;
15553;SDS011;7878;44.632;10.942;2023-04-01T21:31:04;10.40;;;2.37;;
15553;SDS011;7878;44.632;10.942;2023-04-01T21:44:37;10.20;;;2.30;;
15553;SDS011;7878;44.632;10.942;2023-04-01T22:01:37;8.60;;;2.03;;
15553;SDS011;7878;44.632;10.942;2023-04-01T22:06:56;5.00;;;1.97;;
15553;SDS011;7878;44.632;10.942;2023-04-01T22:11:58;9.70;;;2.47;;
15553;SDS011;7878;44.632;10.942;2023-04-01T22:14:37;7.80;;;2.83;;
15553;SDS011;7878;44.632;10.942;2023-04-01T22:17:21;6.90;;;2.00;;
15553;SDS011;7878;44.632;10.942;2023-04-01T22:25:50;4.73;;;2.03;;
15553;SDS011;7878;44.632;10.942;2023-04-01T22:30:59;7.07;;;2.30;;
15553;SDS011;7878;44.632;10.942;2023-04-01T22:33:31;8.03;;;2.13;;
15553;SDS011;7878;44.632;10.942;2023-04-01T22:44:15;7.57;;;2.37;;
15553;SDS011;7878;44.632;10.942;2023-04-01T22:47:04;5.90;;;2.70;;
15553;SDS011;7878;44.632;10.942;2023-04-01T22:50:03;7.57;;;2.67;;
15553;SDS011;7878;44.632;10.942;2023-04-01T22:53:03;9.93;;;2.43;;
15553;SDS011;7878;44.632;10.942;2023-04-01T22:55:41;6.57;;;2.40;;
15553;SDS011;7878;44.632;10.942;2023-04-01T22:58:12;6.10;;;1.83;;
15553;SDS011;7878;44.632;10.942;2023-04-01T23:03:17;11.10;;;2.40;;
15553;SDS011;7878;44.632;10.942;2023-04-01T23:05:55;4.60;;;1.93;;
15553;SDS011;7878;44.632;10.942;2023-04-01T23:11:20;7.67;;;2.43;;
15553;SDS011;7878;44.632;10.942;2023-04-01T23:13:55;50.77;;;38.17;;
15553;SDS011;7878;44.632;10.942;2023-04-01T23:16:39;12.10;;;2.93;;
15553;SDS011;7878;44.632;10.942;2023-04-01T23:19:12;6.73;;;2.20;;
15553;SDS011;7878;44.632;10.942;2023-04-01T23:21:52;10.97;;;2.10;;
15553;SDS011;7878;44.632;10.942;2023-04-01T23:24:28;7.80;;;2.33;;
15553;SDS011;7878;44.632;10.942;2023-04-01T23:29:36;10.10;;;2.07;;
15553;SDS011;7878;44.632;10.942;2023-04-01T23:32:40;4.27;;;2.10;;
15553;SDS011;7878;44.632;10.942;2023-04-01T23:34:59;5.93;;;1.93;;
15553;SDS011;7878;44.632;10.942;2023-04-01T23:37:25;9.43;;;2.77;;
15553;SDS011;7878;44.632;10.942;2023-04-01T23:39:53;8.73;;;2.90;;
15553;SDS011;7878;44.632;10.942;2023-04-01T23:42:31;6.10;;;2.50;;
15553;SDS011;7878;44.632;10.942;2023-04-01T23:45:04;5.80;;;2.10;;
15553;SDS011;7878;44.632;10.942;2023-04-01T23:47:38;6.93;;;2.20;;
15553;SDS011;7878;44.632;10.942;2023-04-01T23:50:18;10.23;;;2.03;;
15553;SDS011;7878;44.632;10.942;2023-04-01T23:52:48;6.50;;;2.60;;
